Rp Zug — HE7351 — position and weather

sailwx.info

Track history (hours):
 
Tides and Currents Weather Stations Pressure Air Temp Water Temp Dewpoint Dewpoint Depression Visibility Wind Speed Wind Dir Waves Ship Positions

Rp Zug

Last reported at 2017-Apr-25 22:00 UTC. Time now 2017-Apr-25 22:20 UTC.
Position N 50°49' E 007°01'.

Length 110 m; draft 1.9 m.

Type: Tanker. MMSI: 269057351.

Date/timePositionNaut miles runAvg speedWind from/ knotsBaromVisibWave heightAir tempDewpointWater temp
2017-Apr-25 22:00N 50°49' E 007°01'2 3.1
2017-Apr-25 21:29N 50°51' E 006°60'2 4.7
2017-Apr-25 21:00N 50°52' E 007°02'1 2.8
2017-Apr-25 20:29N 50°54' E 007°01'2 4.1
2017-Apr-25 20:00N 50°55' E 006°59'3 4.9
2017-Apr-25 19:28N 50°57' E 006°59'12 3.9
2017-Apr-25 16:15N 51°09' E 006°51'1 2.4
2017-Apr-25 15:50N 51°09' E 006°50'1 3.9
2017-Apr-25 15:29N 51°09' E 006°48'2 4.7
2017-Apr-25 15:00N 51°11' E 006°47'2 4.3
2017-Apr-25 14:30N 51°12' E 006°44'2 1.8
2017-Apr-25 13:30N 51°13' E 006°42'0 0.1
2017-Apr-25 13:00N 51°13' E 006°42'1 2.6
2017-Apr-25 12:30N 51°14' E 006°44'1 2.8
2017-Apr-25 11:59N 51°14' E 006°46'3 5.2
2017-Apr-25 11:21N 51°16' E 006°42'8 3.5
2017-Apr-25 09:11N 51°24' E 006°45'1 5.7
2017-Apr-25 09:00N 51°25' E 006°44'2 5.0
2017-Apr-25 08:30N 51°27' E 006°43'2 4.9
2017-Apr-25 08:00N 51°29' E 006°41'2 4.3
2017-Apr-25 07:28N 51°31' E 006°43'2 4.8
2017-Apr-25 07:00N 51°33' E 006°41'4 3.9
2017-Apr-25 06:00N 51°35' E 006°36'3 5.6
2017-Apr-25 05:30N 51°38' E 006°36'2 4.8
2017-Apr-25 05:00N 51°39' E 006°33'3 5.9
2017-Apr-25 04:30N 51°41' E 006°28'3 5.5
2017-Apr-25 04:00N 51°43' E 006°25'2 5.0
2017-Apr-25 03:30N 51°45' E 006°25'3 5.8
2017-Apr-25 02:59N 51°46' E 006°20'3 6.2
2017-Apr-25 02:30N 51°48' E 006°18'3 6.3
2017-Apr-25 02:00N 51°50' E 006°14'3 5.8
2017-Apr-25 01:30N 51°51' E 006°09'3 6.2
2017-Apr-25 01:00N 51°52' E 006°04'1 1.7
2017-Apr-25 00:30N 51°52' E 006°03'0 0.3
2017-Apr-25 00:00N 51°52' E 006°03'2 3.8
2017-Apr-24 23:30N 51°53' E 006°00'2 4.7
2017-Apr-24 23:00N 51°52' E 005°57'3 5.1
2017-Apr-24 22:30N 51°51' E 005°53'3 5.7
2017-Apr-24 22:00N 51°52' E 005°48'3 5.9
2017-Apr-24 21:30N 51°53' E 005°44'3 6.4
2017-Apr-24 21:00N 51°54' E 005°39'4 6.6
2017-Apr-24 20:24N 51°54' E 005°32'4 6.3
2017-Apr-24 19:44N 51°52' E 005°26'2 6.5
2017-Apr-24 19:26N 51°51' E 005°25'3 6.5
2017-Apr-24 18:55N 51°48' E 005°21'5 6.2
2017-Apr-24 18:03N 51°49' E 005°12'3 7.3
2017-Apr-24 17:37N 51°49' E 005°07'2 7.0
2017-Apr-24 17:19N 51°49' E 005°04'2 7.9
2017-Apr-24 17:00N 51°49' E 004°60'4 8.0
2017-Apr-24 16:30N 51°49' E 004°53'5 9.3
2017-Apr-24 16:00N 51°49' E 004°46'4 7.7
2017-Apr-24 15:30N 51°51' E 004°40'510.2
2017-Apr-24 15:00N 51°54' E 004°34'3 6.5
2017-Apr-24 14:30N 51°54' E 004°29'5 4.7
2017-Apr-24 13:30N 51°53' E 004°21'0 0.0
2017-Apr-24 13:00N 51°53' E 004°21'0 0.0
2017-Apr-24 12:31N 51°53' E 004°21'0 0.0
2017-Apr-24 12:00N 51°53' E 004°21'0 0.0
2017-Apr-24 11:30N 51°53' E 004°21'0 0.0
2017-Apr-24 11:01N 51°53' E 004°21'0 0.0
2017-Apr-24 10:30N 51°53' E 004°21'0 0.0
2017-Apr-24 10:01N 51°53' E 004°21'0 0.0
2017-Apr-24 09:31N 51°53' E 004°21'0 0.0
2017-Apr-24 09:01N 51°53' E 004°21'0 0.7
2017-Apr-24 08:31N 51°53' E 004°22'0 0.2
2017-Apr-24 08:01N 51°53' E 004°22'0 0.0
2017-Apr-24 07:30N 51°53' E 004°22'0 0.0
2017-Apr-24 07:00N 51°53' E 004°22'0 0.0
2017-Apr-24 06:30N 51°53' E 004°22'0 0.0
2017-Apr-24 06:00N 51°53' E 004°22'0 0.0
2017-Apr-24 05:30N 51°53' E 004°22'0 0.0
2017-Apr-24 05:00N 51°53' E 004°22'0 0.0
2017-Apr-24 04:30N 51°53' E 004°22'0 0.0
2017-Apr-24 04:00N 51°53' E 004°22'0 0.0
2017-Apr-24 03:30N 51°53' E 004°22'0 0.0
2017-Apr-24 03:00N 51°53' E 004°22'0 0.0
2017-Apr-24 02:30N 51°53' E 004°22'0 0.0
2017-Apr-24 02:00N 51°53' E 004°22'0 0.0
2017-Apr-24 01:30N 51°53' E 004°22'0 0.0
2017-Apr-24 01:00N 51°53' E 004°22'0 0.0
2017-Apr-24 00:30N 51°53' E 004°22'0 0.0
2017-Apr-24 00:00N 51°53' E 004°22'0 0.0
2017-Apr-23 23:30N 51°53' E 004°22'0 0.0
2017-Apr-23 23:00N 51°53' E 004°22'0 0.0
2017-Apr-23 22:30N 51°53' E 004°22'0 0.0
2017-Apr-23 22:00N 51°53' E 004°22'0 0.0
2017-Apr-23 21:30N 51°53' E 004°22'0 0.0
2017-Apr-23 21:00N 51°53' E 004°22'0 0.0
2017-Apr-23 20:30N 51°53' E 004°22'0 0.0
2017-Apr-23 20:00N 51°53' E 004°22'0 0.0
2017-Apr-23 19:30N 51°53' E 004°22'0 0.0
2017-Apr-23 19:00N 51°53' E 004°22'0 0.0
2017-Apr-23 18:30N 51°53' E 004°22'0 0.0
2017-Apr-23 18:00N 51°53' E 004°22'7 6.5
2017-Apr-23 17:00N 51°54' E 004°33'510.2
2017-Apr-23 16:30N 51°51' E 004°39'4 8.3
2017-Apr-23 16:01N 51°49' E 004°45'5 9.7
2017-Apr-23 15:31N 51°49' E 004°53'5 9.7
2017-Apr-23 15:01N 51°49' E 005°01'12 9.8
2017-Apr-23 13:48N 51°49' E 005°20'3 9.0
2017-Apr-23 13:29N 51°50' E 005°24'510.1
2017-Apr-23 12:57N 51°53' E 005°31'511.0
2017-Apr-23 12:29N 51°54' E 005°39'511.1
2017-Apr-23 12:01N 51°53' E 005°47'5 9.2
2017-Apr-23 11:30N 51°52' E 005°55'4 8.3
2017-Apr-23 11:00N 51°53' E 006°02'510.9
2017-Apr-23 10:31N 51°51' E 006°10'611.1
2017-Apr-23 10:01N 51°48' E 006°18'5 9.5
2017-Apr-23 09:30N 51°45' E 006°24'4 8.9
2017-Apr-23 09:01N 51°42' E 006°28'5 9.6
2017-Apr-23 08:31N 51°40' E 006°35'6 7.7
2017-Apr-23 07:47N 51°35' E 006°39'2 8.5
2017-Apr-23 07:31N 51°33' E 006°41'4 7.6
2017-Apr-23 07:01N 51°29' E 006°41'5 9.0
2017-Apr-23 06:30N 51°25' E 006°44'5 9.0
2017-Apr-23 05:57N 51°21' E 006°39'5 8.2
2017-Apr-23 05:24N 51°17' E 006°42'4 9.7
2017-Apr-23 05:01N 51°14' E 006°46'3 6.4
2017-Apr-23 04:31N 51°11' E 006°44'12 7.3
2017-Apr-23 02:49N 51°02' E 006°58'3 9.1
2017-Apr-23 02:29N 50°59' E 006°59'4 8.9
2017-Apr-23 02:00N 50°55' E 006°59'3 6.5
2017-Apr-23 01:29N 50°52' E 007°01'3 7.0
2017-Apr-23 01:01N 50°48' E 007°02'510.2
2017-Apr-23 00:31N 50°44' E 007°07'103 7.3
2017-Apr-22 10:23N 49°13' E 008°23'1 0.0
2017-Apr-20 08:29N 49°12' E 008°23'100 4.1
2017-Apr-19 08:08N 50°41' E 007°11'1 5.9
2017-Apr-19 08:00N 50°41' E 007°10'3 5.4
2017-Apr-19 07:28N 50°43' E 007°07'3 5.5
2017-Apr-19 07:00N 50°46' E 007°05'3 5.6
2017-Apr-19 06:29N 50°48' E 007°02'2 4.8
2017-Apr-19 06:00N 50°50' E 006°60'2 3.9
2017-Apr-19 05:30N 50°51' E 007°01'2 5.0
2017-Apr-19 05:00N 50°54' E 007°03'3 5.0
2017-Apr-19 04:30N 50°54' E 006°59'2 4.3
2017-Apr-19 03:58N 50°57' E 006°58'3 5.3
2017-Apr-19 03:29N 50°59' E 006°60'12 4.1
2017-Apr-19 00:34N 51°09' E 006°49'0 5.8
2017-Apr-19 00:30N 51°09' E 006°49'2 4.3
2017-Apr-19 00:00N 51°11' E 006°48'3 5.3
2017-Apr-18 23:30N 51°11' E 006°44'2 4.2
2017-Apr-18 23:00N 51°13' E 006°43'1 1.0
2017-Apr-18 22:19N 51°13' E 006°42'0 0.1
2017-Apr-18 21:56N 51°13' E 006°42'0 0.2
2017-Apr-18 21:30N 51°13' E 006°42'0 0.1
2017-Apr-18 21:00N 51°13' E 006°42'1 2.6
2017-Apr-18 20:30N 51°14' E 006°44'2 3.1
2017-Apr-18 20:00N 51°14' E 006°46'3 5.5
2017-Apr-18 19:29N 51°16' E 006°42'5 4.1
2017-Apr-18 18:16N 51°21' E 006°40'1 3.8
2017-Apr-18 17:56N 51°22' E 006°40'2 5.6
2017-Apr-18 17:30N 51°23' E 006°44'3 5.2
2017-Apr-18 17:00N 51°26' E 006°43'2 4.0
2017-Apr-18 16:30N 51°28' E 006°44'1 2.1
2017-Apr-18 16:00N 51°28' E 006°42'2 3.2
2017-Apr-18 15:30N 51°30' E 006°43'2 4.1
2017-Apr-18 15:00N 51°32' E 006°41'2 4.8
2017-Apr-18 14:30N 51°34' E 006°41'4 3.4
2017-Apr-18 13:27N 51°35' E 006°36'2 4.5
2017-Apr-18 12:57N 51°38' E 006°35'2 3.6
2017-Apr-18 12:30N 51°39' E 006°36'2 4.1
2017-Apr-18 12:00N 51°40' E 006°32'2 4.5
2017-Apr-18 11:30N 51°40' E 006°29'2 4.7
2017-Apr-18 11:00N 51°42' E 006°28'2 4.5
2017-Apr-18 10:30N 51°43' E 006°24'2 4.1
2017-Apr-18 10:00N 51°45' E 006°24'3 5.0
2017-Apr-18 09:30N 51°46' E 006°20'3 5.9
2017-Apr-18 09:00N 51°48' E 006°18'3 5.8
2017-Apr-18 08:30N 51°50' E 006°14'3 6.1
2017-Apr-18 08:00N 51°51' E 006°09'3 6.5
2017-Apr-18 07:30N 51°52' E 006°04'1 1.6
2017-Apr-18 07:00N 51°52' E 006°03'2 4.3
2017-Apr-18 06:30N 51°53' E 005°60'2 4.5
2017-Apr-18 06:00N 51°52' E 005°56'3 6.1
2017-Apr-18 05:30N 51°51' E 005°52'3 6.7
2017-Apr-18 05:00N 51°53' E 005°47'4 7.0
2017-Apr-18 04:30N 51°54' E 005°42'3 7.0
2017-Apr-18 04:00N 51°54' E 005°36'4 7.0
2017-Apr-18 03:27N 51°53' E 005°30'3 6.4
2017-Apr-18 02:56N 51°52' E 005°25'3 7.3
2017-Apr-18 02:30N 51°49' E 005°22'6 6.5
2017-Apr-18 01:32N 51°49' E 005°12'2 7.9
2017-Apr-18 01:20N 51°49' E 005°10'3 7.8
2017-Apr-18 00:54N 51°50' E 005°04'3 8.0
2017-Apr-18 00:30N 51°49' E 004°59'1 2.2
2017-Apr-18 00:00N 51°50' E 004°58'4 8.0
2017-Apr-17 23:28N 51°49' E 004°51'4 8.2
2017-Apr-17 23:00N 51°49' E 004°45'4 7.5
2017-Apr-17 22:30N 51°48' E 004°39'4 7.8
2017-Apr-17 22:00N 51°50' E 004°33'4 8.9
2017-Apr-17 21:31N 51°50' E 004°26'4 8.5
2017-Apr-17 21:00N 51°52' E 004°19'4 7.4
2017-Apr-17 20:31N 51°53' E 004°14'1 2.2
2017-Apr-17 20:01N 51°54' E 004°13'2 4.8
2017-Apr-17 19:30N 51°56' E 004°11'0 0.0
2017-Apr-17 19:00N 51°56' E 004°11'0 0.0
2017-Apr-17 18:27N 51°56' E 004°11'0 0.0
2017-Apr-17 18:00N 51°56' E 004°11'0 0.0
2017-Apr-17 17:30N 51°56' E 004°11'0 0.0
2017-Apr-17 17:00N 51°56' E 004°11'0 0.0
2017-Apr-17 16:27N 51°56' E 004°11'0 0.0
2017-Apr-17 16:00N 51°56' E 004°11'0 0.0
2017-Apr-17 15:30N 51°56' E 004°11'0 0.0
2017-Apr-17 15:00N 51°56' E 004°11'0 0.0
2017-Apr-17 14:00N 51°56' E 004°11'0 0.0
2017-Apr-17 13:30N 51°56' E 004°11'0 0.0
2017-Apr-17 12:57N 51°56' E 004°11'0 0.0
2017-Apr-17 12:27N 51°56' E 004°11'0 0.0
2017-Apr-17 11:54N 51°56' E 004°11'0 0.0
2017-Apr-17 11:27N 51°56' E 004°11'0 0.7
2017-Apr-17 11:00N 51°56' E 004°11'3 5.4
2017-Apr-17 10:28N 51°54' E 004°14'0 0.0
2017-Apr-17 09:58N 51°54' E 004°14'0 0.0
2017-Apr-17 09:28N 51°54' E 004°14'0 0.0
2017-Apr-17 08:52N 51°54' E 004°14'0 0.0
2017-Apr-17 08:28N 51°54' E 004°14'0 0.0
2017-Apr-17 07:55N 51°54' E 004°14'0 0.0
2017-Apr-17 07:28N 51°54' E 004°14'0 0.0
2017-Apr-17 06:58N 51°54' E 004°14'0 0.0
2017-Apr-17 06:28N 51°54' E 004°14'0 0.0
2017-Apr-17 05:58N 51°54' E 004°14'0 0.0
2017-Apr-17 05:28N 51°54' E 004°14'0 0.0
2017-Apr-17 04:58N 51°54' E 004°14'0 0.0
2017-Apr-17 04:28N 51°54' E 004°14'0 0.0
2017-Apr-17 03:55N 51°54' E 004°14'0 0.0
2017-Apr-17 03:25N 51°54' E 004°14'0 0.0
2017-Apr-17 02:55N 51°54' E 004°14'0 0.0
2017-Apr-17 02:28N 51°54' E 004°14'0 0.0
2017-Apr-17 01:55N 51°54' E 004°14'0 0.0
2017-Apr-17 01:25N 51°54' E 004°14'0 0.0
2017-Apr-17 00:58N 51°54' E 004°14'0 0.0
2017-Apr-17 00:28N 51°54' E 004°14'0 0.0
2017-Apr-16 23:58N 51°54' E 004°14'0 0.0
2017-Apr-16 23:28N 51°54' E 004°14'0 0.0
2017-Apr-16 23:01N 51°54' E 004°14'0 0.0
2017-Apr-16 22:28N 51°54' E 004°14'0 0.0
2017-Apr-16 21:58N 51°54' E 004°14'0 0.0
2017-Apr-16 21:28N 51°54' E 004°14'0 0.0
2017-Apr-16 20:52N 51°54' E 004°14'0 0.0
2017-Apr-16 20:28N 51°54' E 004°14'0 0.0
2017-Apr-16 19:55N 51°54' E 004°14'0 0.0
2017-Apr-16 19:28N 51°54' E 004°14'0 0.0
2017-Apr-16 18:55N 51°54' E 004°14'0 0.0
2017-Apr-16 18:28N 51°54' E 004°14'0 0.0
2017-Apr-16 17:58N 51°54' E 004°14'0 0.0
2017-Apr-16 17:22N 51°54' E 004°14'0 0.0
2017-Apr-16 16:58N 51°54' E 004°14'0 0.0
2017-Apr-16 16:31N 51°54' E 004°14'0 0.0
2017-Apr-16 16:00N 51°54' E 004°14'0 0.2
2017-Apr-16 15:30N 51°54' E 004°14'2 3.1
2017-Apr-16 15:00N 51°52' E 004°15'1010.0
2017-Apr-16 14:00N 51°50' E 004°31'5 9.7
2017-Apr-16 13:30N 51°48' E 004°38'5 9.4
2017-Apr-16 13:00N 51°49' E 004°45'510.6
2017-Apr-16 12:30N 51°49' E 004°54'510.3
2017-Apr-16 11:59N 51°49' E 005°03'810.2
2017-Apr-16 11:11N 51°49' E 005°16'310.1
2017-Apr-16 10:57N 51°49' E 005°20'4 8.7
2017-Apr-16 10:30N 51°51' E 005°25'510.1
2017-Apr-16 10:00N 51°54' E 005°32'611.2
2017-Apr-16 09:30N 51°54' E 005°41'511.0
2017-Apr-16 09:00N 51°52' E 005°49'4 8.7
2017-Apr-16 08:30N 51°52' E 005°56'4 8.0
2017-Apr-16 08:00N 51°52' E 006°03'510.9
2017-Apr-16 07:30N 51°50' E 006°11'611.0
2017-Apr-16 07:00N 51°48' E 006°19'5 9.9
2017-Apr-16 06:30N 51°45' E 006°25'5 9.2
2017-Apr-16 06:00N 51°40' E 006°29'5 8.0
2017-Apr-16 05:21N 51°37' E 006°35'4 7.8
2017-Apr-16 04:53N 51°35' E 006°39'3 9.0
2017-Apr-16 04:30N 51°32' E 006°42'3 6.8
2017-Apr-16 04:00N 51°28' E 006°42'5 9.6
2017-Apr-16 03:30N 51°24' E 006°45'7 7.3
2017-Apr-16 02:32N 51°17' E 006°42'012.6
2017-Apr-16 02:30N 51°16' E 006°42'3 6.1
2017-Apr-16 02:00N 51°14' E 006°44'3 6.7
2017-Apr-16 01:30N 51°11' E 006°47'14 7.7
2017-Apr-15 23:42N 50°59' E 006°59'2 7.6
2017-Apr-15 23:27N 50°57' E 006°59'4 8.5
2017-Apr-15 22:57N 50°54' E 007°02'4 8.8
2017-Apr-15 22:26N 50°50' E 006°59'4 9.6
2017-Apr-15 22:00N 50°47' E 007°03'  
Track history (hours):
 
Tides and Currents Weather Stations Pressure Air Temp Water Temp Dewpoint Dewpoint Depression Visibility Wind Speed Wind Dir Waves Ship Positions

Rp Zug

Last reported at 2017-Apr-25 22:00 UTC. Time now 2017-Apr-25 22:20 UTC.
Position N 50°49' E 007°01'.

Length 110 m; draft 1.9 m.

Type: Tanker. MMSI: 269057351.

Date/timePositionNaut miles runAvg speedWind from/ knotsBaromVisibWave heightAir tempDewpointWater temp
2017-Apr-25 22:00N 50°49' E 007°01'2 3.1
2017-Apr-25 21:29N 50°51' E 006°60'2 4.7
2017-Apr-25 21:00N 50°52' E 007°02'1 2.8
2017-Apr-25 20:29N 50°54' E 007°01'2 4.1
2017-Apr-25 20:00N 50°55' E 006°59'3 4.9
2017-Apr-25 19:28N 50°57' E 006°59'12 3.9
2017-Apr-25 16:15N 51°09' E 006°51'1 2.4
2017-Apr-25 15:50N 51°09' E 006°50'1 3.9
2017-Apr-25 15:29N 51°09' E 006°48'2 4.7
2017-Apr-25 15:00N 51°11' E 006°47'2 4.3
2017-Apr-25 14:30N 51°12' E 006°44'2 1.8
2017-Apr-25 13:30N 51°13' E 006°42'0 0.1
2017-Apr-25 13:00N 51°13' E 006°42'1 2.6
2017-Apr-25 12:30N 51°14' E 006°44'1 2.8
2017-Apr-25 11:59N 51°14' E 006°46'3 5.2
2017-Apr-25 11:21N 51°16' E 006°42'8 3.5
2017-Apr-25 09:11N 51°24' E 006°45'1 5.7
2017-Apr-25 09:00N 51°25' E 006°44'2 5.0
2017-Apr-25 08:30N 51°27' E 006°43'2 4.9
2017-Apr-25 08:00N 51°29' E 006°41'2 4.3
2017-Apr-25 07:28N 51°31' E 006°43'2 4.8
2017-Apr-25 07:00N 51°33' E 006°41'4 3.9
2017-Apr-25 06:00N 51°35' E 006°36'3 5.6
2017-Apr-25 05:30N 51°38' E 006°36'2 4.8
2017-Apr-25 05:00N 51°39' E 006°33'3 5.9
2017-Apr-25 04:30N 51°41' E 006°28'3 5.5
2017-Apr-25 04:00N 51°43' E 006°25'2 5.0
2017-Apr-25 03:30N 51°45' E 006°25'3 5.8
2017-Apr-25 02:59N 51°46' E 006°20'3 6.2
2017-Apr-25 02:30N 51°48' E 006°18'3 6.3
2017-Apr-25 02:00N 51°50' E 006°14'3 5.8
2017-Apr-25 01:30N 51°51' E 006°09'3 6.2
2017-Apr-25 01:00N 51°52' E 006°04'1 1.7
2017-Apr-25 00:30N 51°52' E 006°03'0 0.3
2017-Apr-25 00:00N 51°52' E 006°03'2 3.8
2017-Apr-24 23:30N 51°53' E 006°00'2 4.7
2017-Apr-24 23:00N 51°52' E 005°57'3 5.1
2017-Apr-24 22:30N 51°51' E 005°53'3 5.7
2017-Apr-24 22:00N 51°52' E 005°48'3 5.9
2017-Apr-24 21:30N 51°53' E 005°44'3 6.4
2017-Apr-24 21:00N 51°54' E 005°39'4 6.6
2017-Apr-24 20:24N 51°54' E 005°32'4 6.3
2017-Apr-24 19:44N 51°52' E 005°26'2 6.5
2017-Apr-24 19:26N 51°51' E 005°25'3 6.5
2017-Apr-24 18:55N 51°48' E 005°21'5 6.2
2017-Apr-24 18:03N 51°49' E 005°12'3 7.3
2017-Apr-24 17:37N 51°49' E 005°07'2 7.0
2017-Apr-24 17:19N 51°49' E 005°04'2 7.9
2017-Apr-24 17:00N 51°49' E 004°60'4 8.0
2017-Apr-24 16:30N 51°49' E 004°53'5 9.3
2017-Apr-24 16:00N 51°49' E 004°46'4 7.7
2017-Apr-24 15:30N 51°51' E 004°40'510.2
2017-Apr-24 15:00N 51°54' E 004°34'3 6.5
2017-Apr-24 14:30N 51°54' E 004°29'5 4.7
2017-Apr-24 13:30N 51°53' E 004°21'0 0.0
2017-Apr-24 13:00N 51°53' E 004°21'0 0.0
2017-Apr-24 12:31N 51°53' E 004°21'0 0.0
2017-Apr-24 12:00N 51°53' E 004°21'0 0.0
2017-Apr-24 11:30N 51°53' E 004°21'0 0.0
2017-Apr-24 11:01N 51°53' E 004°21'0 0.0
2017-Apr-24 10:30N 51°53' E 004°21'0 0.0
2017-Apr-24 10:01N 51°53' E 004°21'0 0.0
2017-Apr-24 09:31N 51°53' E 004°21'0 0.0
2017-Apr-24 09:01N 51°53' E 004°21'0 0.7
2017-Apr-24 08:31N 51°53' E 004°22'0 0.2
2017-Apr-24 08:01N 51°53' E 004°22'0 0.0
2017-Apr-24 07:30N 51°53' E 004°22'0 0.0
2017-Apr-24 07:00N 51°53' E 004°22'0 0.0
2017-Apr-24 06:30N 51°53' E 004°22'0 0.0
2017-Apr-24 06:00N 51°53' E 004°22'0 0.0
2017-Apr-24 05:30N 51°53' E 004°22'0 0.0
2017-Apr-24 05:00N 51°53' E 004°22'0 0.0
2017-Apr-24 04:30N 51°53' E 004°22'0 0.0
2017-Apr-24 04:00N 51°53' E 004°22'0 0.0
2017-Apr-24 03:30N 51°53' E 004°22'0 0.0
2017-Apr-24 03:00N 51°53' E 004°22'0 0.0
2017-Apr-24 02:30N 51°53' E 004°22'0 0.0
2017-Apr-24 02:00N 51°53' E 004°22'0 0.0
2017-Apr-24 01:30N 51°53' E 004°22'0 0.0
2017-Apr-24 01:00N 51°53' E 004°22'0 0.0
2017-Apr-24 00:30N 51°53' E 004°22'0 0.0
2017-Apr-24 00:00N 51°53' E 004°22'0 0.0
2017-Apr-23 23:30N 51°53' E 004°22'0 0.0
2017-Apr-23 23:00N 51°53' E 004°22'0 0.0
2017-Apr-23 22:30N 51°53' E 004°22'0 0.0
2017-Apr-23 22:00N 51°53' E 004°22'0 0.0
2017-Apr-23 21:30N 51°53' E 004°22'0 0.0
2017-Apr-23 21:00N 51°53' E 004°22'0 0.0
2017-Apr-23 20:30N 51°53' E 004°22'0 0.0
2017-Apr-23 20:00N 51°53' E 004°22'0 0.0
2017-Apr-23 19:30N 51°53' E 004°22'0 0.0
2017-Apr-23 19:00N 51°53' E 004°22'0 0.0
2017-Apr-23 18:30N 51°53' E 004°22'0 0.0
2017-Apr-23 18:00N 51°53' E 004°22'7 6.5
2017-Apr-23 17:00N 51°54' E 004°33'510.2
2017-Apr-23 16:30N 51°51' E 004°39'4 8.3
2017-Apr-23 16:01N 51°49' E 004°45'5 9.7
2017-Apr-23 15:31N 51°49' E 004°53'5 9.7
2017-Apr-23 15:01N 51°49' E 005°01'12 9.8
2017-Apr-23 13:48N 51°49' E 005°20'3 9.0
2017-Apr-23 13:29N 51°50' E 005°24'510.1
2017-Apr-23 12:57N 51°53' E 005°31'511.0
2017-Apr-23 12:29N 51°54' E 005°39'511.1
2017-Apr-23 12:01N 51°53' E 005°47'5 9.2
2017-Apr-23 11:30N 51°52' E 005°55'4 8.3
2017-Apr-23 11:00N 51°53' E 006°02'510.9
2017-Apr-23 10:31N 51°51' E 006°10'611.1
2017-Apr-23 10:01N 51°48' E 006°18'5 9.5
2017-Apr-23 09:30N 51°45' E 006°24'4 8.9
2017-Apr-23 09:01N 51°42' E 006°28'5 9.6
2017-Apr-23 08:31N 51°40' E 006°35'6 7.7
2017-Apr-23 07:47N 51°35' E 006°39'2 8.5
2017-Apr-23 07:31N 51°33' E 006°41'4 7.6
2017-Apr-23 07:01N 51°29' E 006°41'5 9.0
2017-Apr-23 06:30N 51°25' E 006°44'5 9.0
2017-Apr-23 05:57N 51°21' E 006°39'5 8.2
2017-Apr-23 05:24N 51°17' E 006°42'4 9.7
2017-Apr-23 05:01N 51°14' E 006°46'3 6.4
2017-Apr-23 04:31N 51°11' E 006°44'12 7.3
2017-Apr-23 02:49N 51°02' E 006°58'3 9.1
2017-Apr-23 02:29N 50°59' E 006°59'4 8.9
2017-Apr-23 02:00N 50°55' E 006°59'3 6.5
2017-Apr-23 01:29N 50°52' E 007°01'3 7.0
2017-Apr-23 01:01N 50°48' E 007°02'510.2
2017-Apr-23 00:31N 50°44' E 007°07'103 7.3
2017-Apr-22 10:23N 49°13' E 008°23'1 0.0
2017-Apr-20 08:29N 49°12' E 008°23'100 4.1
2017-Apr-19 08:08N 50°41' E 007°11'1 5.9
2017-Apr-19 08:00N 50°41' E 007°10'3 5.4
2017-Apr-19 07:28N 50°43' E 007°07'3 5.5
2017-Apr-19 07:00N 50°46' E 007°05'3 5.6
2017-Apr-19 06:29N 50°48' E 007°02'2 4.8
2017-Apr-19 06:00N 50°50' E 006°60'2 3.9
2017-Apr-19 05:30N 50°51' E 007°01'2 5.0
2017-Apr-19 05:00N 50°54' E 007°03'3 5.0
2017-Apr-19 04:30N 50°54' E 006°59'2 4.3
2017-Apr-19 03:58N 50°57' E 006°58'3 5.3
2017-Apr-19 03:29N 50°59' E 006°60'12 4.1
2017-Apr-19 00:34N 51°09' E 006°49'0 5.8
2017-Apr-19 00:30N 51°09' E 006°49'2 4.3
2017-Apr-19 00:00N 51°11' E 006°48'3 5.3
2017-Apr-18 23:30N 51°11' E 006°44'2 4.2
2017-Apr-18 23:00N 51°13' E 006°43'1 1.0
2017-Apr-18 22:19N 51°13' E 006°42'0 0.1
2017-Apr-18 21:56N 51°13' E 006°42'0 0.2
2017-Apr-18 21:30N 51°13' E 006°42'0 0.1
2017-Apr-18 21:00N 51°13' E 006°42'1 2.6
2017-Apr-18 20:30N 51°14' E 006°44'2 3.1
2017-Apr-18 20:00N 51°14' E 006°46'3 5.5
2017-Apr-18 19:29N 51°16' E 006°42'5 4.1
2017-Apr-18 18:16N 51°21' E 006°40'1 3.8
2017-Apr-18 17:56N 51°22' E 006°40'2 5.6
2017-Apr-18 17:30N 51°23' E 006°44'3 5.2
2017-Apr-18 17:00N 51°26' E 006°43'2 4.0
2017-Apr-18 16:30N 51°28' E 006°44'1 2.1
2017-Apr-18 16:00N 51°28' E 006°42'2 3.2
2017-Apr-18 15:30N 51°30' E 006°43'2 4.1
2017-Apr-18 15:00N 51°32' E 006°41'2 4.8
2017-Apr-18 14:30N 51°34' E 006°41'4 3.4
2017-Apr-18 13:27N 51°35' E 006°36'2 4.5
2017-Apr-18 12:57N 51°38' E 006°35'2 3.6
2017-Apr-18 12:30N 51°39' E 006°36'2 4.1
2017-Apr-18 12:00N 51°40' E 006°32'2 4.5
2017-Apr-18 11:30N 51°40' E 006°29'2 4.7
2017-Apr-18 11:00N 51°42' E 006°28'2 4.5
2017-Apr-18 10:30N 51°43' E 006°24'2 4.1
2017-Apr-18 10:00N 51°45' E 006°24'3 5.0
2017-Apr-18 09:30N 51°46' E 006°20'3 5.9
2017-Apr-18 09:00N 51°48' E 006°18'3 5.8
2017-Apr-18 08:30N 51°50' E 006°14'3 6.1
2017-Apr-18 08:00N 51°51' E 006°09'3 6.5
2017-Apr-18 07:30N 51°52' E 006°04'1 1.6
2017-Apr-18 07:00N 51°52' E 006°03'2 4.3
2017-Apr-18 06:30N 51°53' E 005°60'2 4.5
2017-Apr-18 06:00N 51°52' E 005°56'3 6.1
2017-Apr-18 05:30N 51°51' E 005°52'3 6.7
2017-Apr-18 05:00N 51°53' E 005°47'4 7.0
2017-Apr-18 04:30N 51°54' E 005°42'3 7.0
2017-Apr-18 04:00N 51°54' E 005°36'4 7.0
2017-Apr-18 03:27N 51°53' E 005°30'3 6.4
2017-Apr-18 02:56N 51°52' E 005°25'3 7.3
2017-Apr-18 02:30N 51°49' E 005°22'6 6.5
2017-Apr-18 01:32N 51°49' E 005°12'2 7.9
2017-Apr-18 01:20N 51°49' E 005°10'3 7.8
2017-Apr-18 00:54N 51°50' E 005°04'3 8.0
2017-Apr-18 00:30N 51°49' E 004°59'1 2.2
2017-Apr-18 00:00N 51°50' E 004°58'4 8.0
2017-Apr-17 23:28N 51°49' E 004°51'4 8.2
2017-Apr-17 23:00N 51°49' E 004°45'4 7.5
2017-Apr-17 22:30N 51°48' E 004°39'4 7.8
2017-Apr-17 22:00N 51°50' E 004°33'4 8.9
2017-Apr-17 21:31N 51°50' E 004°26'4 8.5
2017-Apr-17 21:00N 51°52' E 004°19'4 7.4
2017-Apr-17 20:31N 51°53' E 004°14'1 2.2
2017-Apr-17 20:01N 51°54' E 004°13'2 4.8
2017-Apr-17 19:30N 51°56' E 004°11'0 0.0
2017-Apr-17 19:00N 51°56' E 004°11'0 0.0
2017-Apr-17 18:27N 51°56' E 004°11'0 0.0
2017-Apr-17 18:00N 51°56' E 004°11'0 0.0
2017-Apr-17 17:30N 51°56' E 004°11'0 0.0
2017-Apr-17 17:00N 51°56' E 004°11'0 0.0
2017-Apr-17 16:27N 51°56' E 004°11'0 0.0
2017-Apr-17 16:00N 51°56' E 004°11'0 0.0
2017-Apr-17 15:30N 51°56' E 004°11'0 0.0
2017-Apr-17 15:00N 51°56' E 004°11'0 0.0
2017-Apr-17 14:00N 51°56' E 004°11'0 0.0
2017-Apr-17 13:30N 51°56' E 004°11'0 0.0
2017-Apr-17 12:57N 51°56' E 004°11'0 0.0
2017-Apr-17 12:27N 51°56' E 004°11'0 0.0
2017-Apr-17 11:54N 51°56' E 004°11'0 0.0
2017-Apr-17 11:27N 51°56' E 004°11'0 0.7
2017-Apr-17 11:00N 51°56' E 004°11'3 5.4
2017-Apr-17 10:28N 51°54' E 004°14'0 0.0
2017-Apr-17 09:58N 51°54' E 004°14'0 0.0
2017-Apr-17 09:28N 51°54' E 004°14'0 0.0
2017-Apr-17 08:52N 51°54' E 004°14'0 0.0
2017-Apr-17 08:28N 51°54' E 004°14'0 0.0
2017-Apr-17 07:55N 51°54' E 004°14'0 0.0
2017-Apr-17 07:28N 51°54' E 004°14'0 0.0
2017-Apr-17 06:58N 51°54' E 004°14'0 0.0
2017-Apr-17 06:28N 51°54' E 004°14'0 0.0
2017-Apr-17 05:58N 51°54' E 004°14'0 0.0
2017-Apr-17 05:28N 51°54' E 004°14'0 0.0
2017-Apr-17 04:58N 51°54' E 004°14'0 0.0
2017-Apr-17 04:28N 51°54' E 004°14'0 0.0
2017-Apr-17 03:55N 51°54' E 004°14'0 0.0
2017-Apr-17 03:25N 51°54' E 004°14'0 0.0
2017-Apr-17 02:55N 51°54' E 004°14'0 0.0
2017-Apr-17 02:28N 51°54' E 004°14'0 0.0
2017-Apr-17 01:55N 51°54' E 004°14'0 0.0
2017-Apr-17 01:25N 51°54' E 004°14'0 0.0
2017-Apr-17 00:58N 51°54' E 004°14'0 0.0
2017-Apr-17 00:28N 51°54' E 004°14'0 0.0
2017-Apr-16 23:58N 51°54' E 004°14'0 0.0
2017-Apr-16 23:28N 51°54' E 004°14'0 0.0
2017-Apr-16 23:01N 51°54' E 004°14'0 0.0
2017-Apr-16 22:28N 51°54' E 004°14'0 0.0
2017-Apr-16 21:58N 51°54' E 004°14'0 0.0
2017-Apr-16 21:28N 51°54' E 004°14'0 0.0
2017-Apr-16 20:52N 51°54' E 004°14'0 0.0
2017-Apr-16 20:28N 51°54' E 004°14'0 0.0
2017-Apr-16 19:55N 51°54' E 004°14'0 0.0
2017-Apr-16 19:28N 51°54' E 004°14'0 0.0
2017-Apr-16 18:55N 51°54' E 004°14'0 0.0
2017-Apr-16 18:28N 51°54' E 004°14'0 0.0
2017-Apr-16 17:58N 51°54' E 004°14'0 0.0
2017-Apr-16 17:22N 51°54' E 004°14'0 0.0
2017-Apr-16 16:58N 51°54' E 004°14'0 0.0
2017-Apr-16 16:31N 51°54' E 004°14'0 0.0
2017-Apr-16 16:00N 51°54' E 004°14'0 0.2
2017-Apr-16 15:30N 51°54' E 004°14'2 3.1
2017-Apr-16 15:00N 51°52' E 004°15'1010.0
2017-Apr-16 14:00N 51°50' E 004°31'5 9.7
2017-Apr-16 13:30N 51°48' E 004°38'5 9.4
2017-Apr-16 13:00N 51°49' E 004°45'510.6
2017-Apr-16 12:30N 51°49' E 004°54'510.3
2017-Apr-16 11:59N 51°49' E 005°03'810.2
2017-Apr-16 11:11N 51°49' E 005°16'310.1
2017-Apr-16 10:57N 51°49' E 005°20'4 8.7
2017-Apr-16 10:30N 51°51' E 005°25'510.1
2017-Apr-16 10:00N 51°54' E 005°32'611.2
2017-Apr-16 09:30N 51°54' E 005°41'511.0
2017-Apr-16 09:00N 51°52' E 005°49'4 8.7
2017-Apr-16 08:30N 51°52' E 005°56'4 8.0
2017-Apr-16 08:00N 51°52' E 006°03'510.9
2017-Apr-16 07:30N 51°50' E 006°11'611.0
2017-Apr-16 07:00N 51°48' E 006°19'5 9.9
2017-Apr-16 06:30N 51°45' E 006°25'5 9.2
2017-Apr-16 06:00N 51°40' E 006°29'5 8.0
2017-Apr-16 05:21N 51°37' E 006°35'4 7.8
2017-Apr-16 04:53N 51°35' E 006°39'3 9.0
2017-Apr-16 04:30N 51°32' E 006°42'3 6.8
2017-Apr-16 04:00N 51°28' E 006°42'5 9.6
2017-Apr-16 03:30N 51°24' E 006°45'7 7.3
2017-Apr-16 02:32N 51°17' E 006°42'012.6
2017-Apr-16 02:30N 51°16' E 006°42'3 6.1
2017-Apr-16 02:00N 51°14' E 006°44'3 6.7
2017-Apr-16 01:30N 51°11' E 006°47'14 7.7
2017-Apr-15 23:42N 50°59' E 006°59'2 7.6
2017-Apr-15 23:27N 50°57' E 006°59'4 8.5
2017-Apr-15 22:57N 50°54' E 007°02'4 8.8
2017-Apr-15 22:26N 50°50' E 006°59'4 9.6
2017-Apr-15 22:00N 50°47' E 007°03'  

Dump ship's entire track history